sensor_id;sensor_type;location;lat;lon;timestamp;P1;durP1;ratioP1;P2;durP2;ratioP2
25649;SDS011;13505;45.196;5.696;2024-03-08T05:30:57;14.60;;;7.38;;
25649;SDS011;13505;45.196;5.696;2024-03-08T05:35:47;13.45;;;7.60;;
25649;SDS011;13505;45.196;5.696;2024-03-08T05:40:38;11.93;;;6.65;;
25649;SDS011;13505;45.196;5.696;2024-03-08T05:45:29;13.98;;;7.32;;
25649;SDS011;13505;45.196;5.696;2024-03-08T05:50:19;18.50;;;8.00;;
25649;SDS011;13505;45.196;5.696;2024-03-08T05:55:09;17.63;;;8.98;;
25649;SDS011;13505;45.196;5.696;2024-03-08T06:00:00;16.17;;;8.70;;
25649;SDS011;13505;45.196;5.696;2024-03-08T06:04:50;16.27;;;8.98;;
25649;SDS011;13505;45.196;5.696;2024-03-08T06:09:40;15.30;;;8.38;;
25649;SDS011;13505;45.196;5.696;2024-03-08T06:14:31;15.20;;;7.78;;
25649;SDS011;13505;45.196;5.696;2024-03-08T06:19:21;13.20;;;7.40;;
25649;SDS011;13505;45.196;5.696;2024-03-08T06:24:11;13.13;;;7.57;;
25649;SDS011;13505;45.196;5.696;2024-03-08T06:29:02;14.00;;;7.95;;
25649;SDS011;13505;45.196;5.696;2024-03-08T06:33:52;15.53;;;8.87;;
25649;SDS011;13505;45.196;5.696;2024-03-08T06:38:45;15.07;;;7.65;;
25649;SDS011;13505;45.196;5.696;2024-03-08T06:43:36;15.60;;;8.05;;
25649;SDS011;13505;45.196;5.696;2024-03-08T06:48:26;15.40;;;8.27;;
25649;SDS011;13505;45.196;5.696;2024-03-08T06:53:16;18.17;;;8.70;;
25649;SDS011;13505;45.196;5.696;2024-03-08T06:58:09;19.42;;;8.95;;
25649;SDS011;13505;45.196;5.696;2024-03-08T07:03:00;20.02;;;8.85;;
25649;SDS011;13505;45.196;5.696;2024-03-08T07:07:51;17.42;;;9.10;;
25649;SDS011;13505;45.196;5.696;2024-03-08T07:12:41;19.50;;;9.73;;
25649;SDS011;13505;45.196;5.696;2024-03-08T07:17:32;20.05;;;10.15;;
25649;SDS011;13505;45.196;5.696;2024-03-08T07:22:25;21.17;;;9.68;;
25649;SDS011;13505;45.196;5.696;2024-03-08T07:27:16;22.65;;;10.98;;
25649;SDS011;13505;45.196;5.696;2024-03-08T07:32:07;20.35;;;10.35;;
25649;SDS011;13505;45.196;5.696;2024-03-08T07:37:08;17.85;;;9.10;;
25649;SDS011;13505;45.196;5.696;2024-03-08T07:42:01;17.90;;;9.73;;
25649;SDS011;13505;45.196;5.696;2024-03-08T07:46:51;19.73;;;9.82;;
25649;SDS011;13505;45.196;5.696;2024-03-08T07:51:41;21.17;;;10.23;;
25649;SDS011;13505;45.196;5.696;2024-03-08T07:56:32;20.40;;;11.07;;
25649;SDS011;13505;45.196;5.696;2024-03-08T08:01:23;23.38;;;12.05;;
25649;SDS011;13505;45.196;5.696;2024-03-08T08:06:14;21.53;;;12.03;;
25649;SDS011;13505;45.196;5.696;2024-03-08T08:11:06;23.85;;;11.32;;
25649;SDS011;13505;45.196;5.696;2024-03-08T08:15:56;24.40;;;12.00;;
25649;SDS011;13505;45.196;5.696;2024-03-08T08:20:46;21.27;;;11.37;;
25649;SDS011;13505;45.196;5.696;2024-03-08T08:25:37;23.48;;;11.98;;
25649;SDS011;13505;45.196;5.696;2024-03-08T08:30:28;23.45;;;11.77;;
25649;SDS011;13505;45.196;5.696;2024-03-08T08:35:18;23.60;;;12.37;;
25649;SDS011;13505;45.196;5.696;2024-03-08T08:40:09;29.20;;;12.55;;
25649;SDS011;13505;45.196;5.696;2024-03-08T08:45:07;24.80;;;12.27;;
25649;SDS011;13505;45.196;5.696;2024-03-08T08:49:59;23.77;;;12.00;;
25649;SDS011;13505;45.196;5.696;2024-03-08T08:54:50;26.77;;;12.00;;
25649;SDS011;13505;45.196;5.696;2024-03-08T08:59:41;21.60;;;10.85;;
25649;SDS011;13505;45.196;5.696;2024-03-08T09:04:31;19.00;;;10.60;;
25649;SDS011;13505;45.196;5.696;2024-03-08T09:09:22;19.50;;;10.10;;
25649;SDS011;13505;45.196;5.696;2024-03-08T09:14:12;16.70;;;10.07;;
25649;SDS011;13505;45.196;5.696;2024-03-08T09:19:04;19.00;;;10.70;;
25649;SDS011;13505;45.196;5.696;2024-03-08T09:23:55;18.15;;;10.10;;
25649;SDS011;13505;45.196;5.696;2024-03-08T09:28:45;17.93;;;9.70;;
25649;SDS011;13505;45.196;5.696;2024-03-08T09:33:36;20.13;;;10.57;;
25649;SDS011;13505;45.196;5.696;2024-03-08T09:38:26;19.43;;;10.43;;
25649;SDS011;13505;45.196;5.696;2024-03-08T09:43:16;19.40;;;9.70;;
25649;SDS011;13505;45.196;5.696;2024-03-08T09:48:11;17.50;;;9.93;;
25649;SDS011;13505;45.196;5.696;2024-03-08T09:53:04;17.08;;;9.23;;
25649;SDS011;13505;45.196;5.696;2024-03-08T09:57:58;17.30;;;9.65;;
25649;SDS011;13505;45.196;5.696;2024-03-08T10:03:09;17.27;;;9.73;;
25649;SDS011;13505;45.196;5.696;2024-03-08T10:08:00;17.20;;;9.77;;
25649;SDS011;13505;45.196;5.696;2024-03-08T10:12:51;17.60;;;9.10;;
25649;SDS011;13505;45.196;5.696;2024-03-08T10:17:41;15.55;;;8.63;;
25649;SDS011;13505;45.196;5.696;2024-03-08T10:22:33;14.55;;;8.45;;
25649;SDS011;13505;45.196;5.696;2024-03-08T10:27:25;13.55;;;8.65;;
25649;SDS011;13505;45.196;5.696;2024-03-08T10:32:17;15.00;;;8.38;;
25649;SDS011;13505;45.196;5.696;2024-03-08T10:37:07;12.60;;;7.38;;
25649;SDS011;13505;45.196;5.696;2024-03-08T10:42:02;12.63;;;7.75;;
25649;SDS011;13505;45.196;5.696;2024-03-08T10:51:50;12.80;;;7.50;;
25649;SDS011;13505;45.196;5.696;2024-03-08T10:56:43;12.27;;;7.00;;
25649;SDS011;13505;45.196;5.696;2024-03-08T11:01:34;17.48;;;6.82;;
25649;SDS011;13505;45.196;5.696;2024-03-08T11:11:27;14.02;;;6.97;;
25649;SDS011;13505;45.196;5.696;2024-03-08T11:21:15;11.23;;;6.50;;
25649;SDS011;13505;45.196;5.696;2024-03-08T11:26:20;14.93;;;6.53;;
25649;SDS011;13505;45.196;5.696;2024-03-08T11:31:21;11.75;;;6.20;;
25649;SDS011;13505;45.196;5.696;2024-03-08T11:36:14;12.75;;;7.05;;
25649;SDS011;13505;45.196;5.696;2024-03-08T11:41:12;15.32;;;7.03;;
25649;SDS011;13505;45.196;5.696;2024-03-08T11:46:07;14.13;;;8.30;;
25649;SDS011;13505;45.196;5.696;2024-03-08T11:50:59;21.65;;;9.35;;
25649;SDS011;13505;45.196;5.696;2024-03-08T11:55:51;14.20;;;7.68;;
25649;SDS011;13505;45.196;5.696;2024-03-08T12:00:41;18.42;;;9.35;;
25649;SDS011;13505;45.196;5.696;2024-03-08T12:05:32;19.27;;;9.35;;
25649;SDS011;13505;45.196;5.696;2024-03-08T12:10:23;15.98;;;8.23;;
25649;SDS011;13505;45.196;5.696;2024-03-08T12:15:15;15.60;;;8.13;;
25649;SDS011;13505;45.196;5.696;2024-03-08T12:20:11;12.60;;;7.35;;
25649;SDS011;13505;45.196;5.696;2024-03-08T12:25:22;14.57;;;8.27;;
25649;SDS011;13505;45.196;5.696;2024-03-08T12:35:11;14.25;;;8.98;;
25649;SDS011;13505;45.196;5.696;2024-03-08T12:40:01;13.82;;;8.15;;
25649;SDS011;13505;45.196;5.696;2024-03-08T12:44:57;18.35;;;8.35;;
25649;SDS011;13505;45.196;5.696;2024-03-08T12:49:49;13.90;;;7.80;;
25649;SDS011;13505;45.196;5.696;2024-03-08T12:54:39;14.43;;;8.43;;
25649;SDS011;13505;45.196;5.696;2024-03-08T12:59:30;21.53;;;8.67;;
25649;SDS011;13505;45.196;5.696;2024-03-08T13:04:20;15.00;;;8.43;;
25649;SDS011;13505;45.196;5.696;2024-03-08T13:09:11;15.05;;;8.23;;
25649;SDS011;13505;45.196;5.696;2024-03-08T13:14:02;12.97;;;8.40;;
25649;SDS011;13505;45.196;5.696;2024-03-08T13:18:55;14.07;;;7.63;;
25649;SDS011;13505;45.196;5.696;2024-03-08T13:23:47;18.77;;;9.55;;
25649;SDS011;13505;45.196;5.696;2024-03-08T13:28:39;15.88;;;8.82;;
25649;SDS011;13505;45.196;5.696;2024-03-08T13:33:29;14.65;;;9.10;;
25649;SDS011;13505;45.196;5.696;2024-03-08T13:38:20;13.55;;;7.53;;
25649;SDS011;13505;45.196;5.696;2024-03-08T13:43:10;10.13;;;5.32;;
25649;SDS011;13505;45.196;5.696;2024-03-08T13:48:01;7.60;;;4.40;;
25649;SDS011;13505;45.196;5.696;2024-03-08T13:52:54;6.40;;;3.60;;
25649;SDS011;13505;45.196;5.696;2024-03-08T13:57:45;7.77;;;4.37;;
25649;SDS011;13505;45.196;5.696;2024-03-08T14:02:36;9.98;;;5.13;;
25649;SDS011;13505;45.196;5.696;2024-03-08T14:07:26;8.93;;;5.28;;
25649;SDS011;13505;45.196;5.696;2024-03-08T14:12:19;11.38;;;5.10;;
25649;SDS011;13505;45.196;5.696;2024-03-08T14:17:10;4.38;;;2.58;;
25649;SDS011;13505;45.196;5.696;2024-03-08T14:22:01;6.93;;;3.28;;
25649;SDS011;13505;45.196;5.696;2024-03-08T14:26:54;6.65;;;4.43;;
25649;SDS011;13505;45.196;5.696;2024-03-08T14:31:44;5.00;;;3.30;;
25649;SDS011;13505;45.196;5.696;2024-03-08T14:36:35;6.15;;;2.88;;
25649;SDS011;13505;45.196;5.696;2024-03-08T14:41:25;3.67;;;1.88;;
25649;SDS011;13505;45.196;5.696;2024-03-08T14:46:16;4.60;;;1.70;;
25649;SDS011;13505;45.196;5.696;2024-03-08T14:51:07;3.33;;;1.75;;
25649;SDS011;13505;45.196;5.696;2024-03-08T14:56:00;3.05;;;1.30;;
25649;SDS011;13505;45.196;5.696;2024-03-08T15:00:50;0.83;;;0.67;;
25649;SDS011;13505;45.196;5.696;2024-03-08T15:05:45;0.43;;;0.43;;
25649;SDS011;13505;45.196;5.696;2024-03-08T15:10:38;6.13;;;0.73;;
25649;SDS011;13505;45.196;5.696;2024-03-08T15:15:30;3.85;;;1.23;;
25649;SDS011;13505;45.196;5.696;2024-03-08T15:20:20;2.50;;;1.40;;
25649;SDS011;13505;45.196;5.696;2024-03-08T15:25:14;4.30;;;1.40;;
25649;SDS011;13505;45.196;5.696;2024-03-08T15:30:10;2.45;;;1.33;;
25649;SDS011;13505;45.196;5.696;2024-03-08T15:35:03;2.30;;;1.02;;
25649;SDS011;13505;45.196;5.696;2024-03-08T15:39:54;2.20;;;1.05;;
25649;SDS011;13505;45.196;5.696;2024-03-08T15:44:44;6.07;;;2.27;;
25649;SDS011;13505;45.196;5.696;2024-03-08T15:49:34;11.60;;;6.37;;
25649;SDS011;13505;45.196;5.696;2024-03-08T15:54:25;5.57;;;4.70;;
25649;SDS011;13505;45.196;5.696;2024-03-08T15:59:15;4.78;;;4.10;;
25649;SDS011;13505;45.196;5.696;2024-03-08T16:04:06;4.50;;;3.25;;
25649;SDS011;13505;45.196;5.696;2024-03-08T16:08:57;4.80;;;3.53;;
25649;SDS011;13505;45.196;5.696;2024-03-08T16:13:49;3.60;;;2.00;;
25649;SDS011;13505;45.196;5.696;2024-03-08T16:18:39;2.88;;;1.95;;
25649;SDS011;13505;45.196;5.696;2024-03-08T16:23:30;4.68;;;2.38;;
25649;SDS011;13505;45.196;5.696;2024-03-08T16:28:21;6.07;;;3.57;;
25649;SDS011;13505;45.196;5.696;2024-03-08T16:33:15;6.82;;;3.55;;
25649;SDS011;13505;45.196;5.696;2024-03-08T16:38:08;2.90;;;1.67;;
25649;SDS011;13505;45.196;5.696;2024-03-08T16:42:58;3.13;;;2.23;;
25649;SDS011;13505;45.196;5.696;2024-03-08T16:47:49;3.25;;;1.48;;
25649;SDS011;13505;45.196;5.696;2024-03-08T16:52:45;7.07;;;1.90;;
25649;SDS011;13505;45.196;5.696;2024-03-08T16:57:36;2.53;;;1.52;;
25649;SDS011;13505;45.196;5.696;2024-03-08T17:02:26;3.00;;;1.60;;
25649;SDS011;13505;45.196;5.696;2024-03-08T17:07:16;3.45;;;1.98;;
25649;SDS011;13505;45.196;5.696;2024-03-08T17:12:07;4.72;;;2.20;;
25649;SDS011;13505;45.196;5.696;2024-03-08T17:17:00;3.65;;;2.50;;
25649;SDS011;13505;45.196;5.696;2024-03-08T17:21:50;1.80;;;1.40;;
25649;SDS011;13505;45.196;5.696;2024-03-08T17:26:41;8.83;;;2.57;;
25649;SDS011;13505;45.196;5.696;2024-03-08T17:31:31;5.87;;;3.53;;
25649;SDS011;13505;45.196;5.696;2024-03-08T17:36:22;6.20;;;3.60;;
25649;SDS011;13505;45.196;5.696;2024-03-08T17:41:13;11.10;;;4.87;;
25649;SDS011;13505;45.196;5.696;2024-03-08T17:46:06;10.82;;;4.32;;
25649;SDS011;13505;45.196;5.696;2024-03-08T17:50:57;8.00;;;3.92;;
25649;SDS011;13505;45.196;5.696;2024-03-08T17:55:47;10.35;;;5.00;;
25649;SDS011;13505;45.196;5.696;2024-03-08T18:00:40;6.95;;;3.70;;
25649;SDS011;13505;45.196;5.696;2024-03-08T18:05:30;8.93;;;4.75;;
25649;SDS011;13505;45.196;5.696;2024-03-08T18:10:22;13.10;;;6.30;;
25649;SDS011;13505;45.196;5.696;2024-03-08T18:15:13;12.85;;;7.03;;
25649;SDS011;13505;45.196;5.696;2024-03-08T18:20:10;15.20;;;6.57;;
25649;SDS011;13505;45.196;5.696;2024-03-08T18:25:04;7.18;;;2.55;;
25649;SDS011;13505;45.196;5.696;2024-03-08T18:30:02;9.60;;;2.40;;
25649;SDS011;13505;45.196;5.696;2024-03-08T18:34:54;5.72;;;2.15;;
25649;SDS011;13505;45.196;5.696;2024-03-08T18:39:45;4.03;;;1.40;;
25649;SDS011;13505;45.196;5.696;2024-03-08T18:44:35;3.60;;;1.83;;
25649;SDS011;13505;45.196;5.696;2024-03-08T18:49:25;4.15;;;2.08;;
25649;SDS011;13505;45.196;5.696;2024-03-08T18:54:16;2.20;;;1.20;;
25649;SDS011;13505;45.196;5.696;2024-03-08T18:59:06;2.50;;;0.80;;
25649;SDS011;13505;45.196;5.696;2024-03-08T19:03:59;1.95;;;0.90;;
25649;SDS011;13505;45.196;5.696;2024-03-08T19:08:49;2.78;;;1.23;;
25649;SDS011;13505;45.196;5.696;2024-03-08T19:13:44;1.70;;;1.30;;
25649;SDS011;13505;45.196;5.696;2024-03-08T19:18:34;5.93;;;2.40;;
25649;SDS011;13505;45.196;5.696;2024-03-08T19:23:26;4.38;;;1.90;;
25649;SDS011;13505;45.196;5.696;2024-03-08T19:28:21;8.07;;;3.55;;
25649;SDS011;13505;45.196;5.696;2024-03-08T19:33:11;10.43;;;5.32;;
25649;SDS011;13505;45.196;5.696;2024-03-08T19:38:01;7.30;;;3.73;;
25649;SDS011;13505;45.196;5.696;2024-03-08T19:42:52;5.90;;;2.90;;
25649;SDS011;13505;45.196;5.696;2024-03-08T19:47:44;6.13;;;2.33;;
25649;SDS011;13505;45.196;5.696;2024-03-08T19:52:35;16.95;;;7.38;;
25649;SDS011;13505;45.196;5.696;2024-03-08T19:57:26;4.68;;;2.40;;
25649;SDS011;13505;45.196;5.696;2024-03-08T20:02:19;3.45;;;2.15;;
25649;SDS011;13505;45.196;5.696;2024-03-08T20:07:09;3.20;;;2.00;;
25649;SDS011;13505;45.196;5.696;2024-03-08T20:12:03;2.03;;;1.55;;
25649;SDS011;13505;45.196;5.696;2024-03-08T20:16:58;3.22;;;1.80;;
25649;SDS011;13505;45.196;5.696;2024-03-08T20:21:48;4.90;;;2.50;;
25649;SDS011;13505;45.196;5.696;2024-03-08T20:26:38;4.20;;;2.80;;
25649;SDS011;13505;45.196;5.696;2024-03-08T20:31:30;6.25;;;3.63;;
25649;SDS011;13505;45.196;5.696;2024-03-08T20:36:21;7.55;;;3.47;;
25649;SDS011;13505;45.196;5.696;2024-03-08T20:41:12;3.30;;;2.33;;
25649;SDS011;13505;45.196;5.696;2024-03-08T20:46:02;3.78;;;2.20;;
25649;SDS011;13505;45.196;5.696;2024-03-08T20:50:56;3.95;;;2.60;;
25649;SDS011;13505;45.196;5.696;2024-03-08T20:55:46;1.73;;;1.30;;
25649;SDS011;13505;45.196;5.696;2024-03-08T21:00:38;4.00;;;1.40;;
25649;SDS011;13505;45.196;5.696;2024-03-08T21:05:29;3.47;;;1.90;;
25649;SDS011;13505;45.196;5.696;2024-03-08T21:10:20;2.45;;;1.92;;
25649;SDS011;13505;45.196;5.696;2024-03-08T21:15:10;3.00;;;1.73;;
25649;SDS011;13505;45.196;5.696;2024-03-08T21:20:02;7.75;;;2.53;;
25649;SDS011;13505;45.196;5.696;2024-03-08T21:24:53;3.88;;;1.80;;
25649;SDS011;13505;45.196;5.696;2024-03-08T21:29:44;3.30;;;2.30;;
25649;SDS011;13505;45.196;5.696;2024-03-08T21:34:38;3.95;;;2.60;;
25649;SDS011;13505;45.196;5.696;2024-03-08T21:39:29;4.80;;;2.70;;
25649;SDS011;13505;45.196;5.696;2024-03-08T21:44:21;5.03;;;2.65;;
25649;SDS011;13505;45.196;5.696;2024-03-08T21:49:11;3.92;;;2.65;;
25649;SDS011;13505;45.196;5.696;2024-03-08T21:54:01;5.47;;;3.10;;
25649;SDS011;13505;45.196;5.696;2024-03-08T21:58:53;7.40;;;4.53;;
25649;SDS011;13505;45.196;5.696;2024-03-08T22:03:43;7.27;;;3.80;;
25649;SDS011;13505;45.196;5.696;2024-03-08T22:08:34;9.52;;;5.00;;
25649;SDS011;13505;45.196;5.696;2024-03-08T22:13:24;13.27;;;7.03;;
25649;SDS011;13505;45.196;5.696;2024-03-08T22:18:14;8.27;;;4.50;;
25649;SDS011;13505;45.196;5.696;2024-03-08T22:23:04;7.07;;;4.40;;
25649;SDS011;13505;45.196;5.696;2024-03-08T22:27:56;9.85;;;4.93;;
25649;SDS011;13505;45.196;5.696;2024-03-08T22:32:46;8.23;;;4.80;;
25649;SDS011;13505;45.196;5.696;2024-03-08T22:37:37;7.80;;;4.05;;
25649;SDS011;13505;45.196;5.696;2024-03-08T22:42:27;7.47;;;4.47;;
25649;SDS011;13505;45.196;5.696;2024-03-08T22:47:17;7.80;;;4.50;;
25649;SDS011;13505;45.196;5.696;2024-03-08T22:52:08;6.93;;;4.27;;
25649;SDS011;13505;45.196;5.696;2024-03-08T22:56:58;9.55;;;4.90;;
